Time;durP1;ratioP1;P1;durP2;ratioP2;P2;SDS_P1;SDS_P2;PMS_P1;PMS_P2;Temp;Humidity;BMP_temperature;BMP_pressure;BME280_temperature;BME280_humidity;BME280_pressure;Samples;Min_cycle;Max_cycle;Signal;HPM_P1;HPM_P2
2022/06/27 00:02:03;;;;;;;8.15;4.90;;;17.10;99.90;;;;;;5092139;28;20047;-80
2022/06/27 00:04:29;;;;;;;11.20;5.20;;;17.10;99.90;;;;;;5091968;28;20052;-80
2022/06/27 00:06:54;;;;;;;7.22;5.38;;;17.10;99.90;;;;;;5091385;28;20079;-80
2022/06/27 00:09:20;;;;;;;12.57;5.80;;;17.10;99.90;;;;;;5091759;28;20057;-80
2022/06/27 00:11:46;;;;;;;8.95;5.75;;;17.20;99.90;;;;;;5092125;28;20827;-79
2022/06/27 00:14:11;;;;;;;7.75;4.88;;;17.20;99.90;;;;;;5091525;28;20079;-80
2022/06/27 00:16:37;;;;;;;7.47;5.35;;;17.30;99.90;;;;;;5073365;28;20135;-79
2022/06/27 00:19:03;;;;;;;10.18;6.03;;;17.20;99.90;;;;;;5073508;28;20044;-80
2022/06/27 00:21:29;;;;;;;11.27;6.15;;;17.20;99.90;;;;;;5091623;28;20040;-81
2022/06/27 00:23:54;;;;;;;8.63;6.45;;;17.20;99.90;;;;;;5091721;28;20040;-81
2022/06/27 00:26:20;;;;;;;8.82;6.18;;;17.20;99.90;;;;;;5091454;28;20044;-80
2022/06/27 00:28:46;;;;;;;9.25;6.78;;;17.30;99.90;;;;;;5091334;28;20048;-80
2022/06/27 00:31:11;;;;;;;13.15;7.13;;;17.50;99.90;;;;;;5073577;28;20040;-80
2022/06/27 00:33:37;;;;;;;10.55;7.30;;;17.40;99.90;;;;;;5091424;28;20556;-80
2022/06/27 00:36:03;;;;;;;11.50;7.03;;;17.60;99.90;;;;;;5091267;28;20488;-81
2022/06/27 00:38:28;;;;;;;9.73;6.95;;;17.30;99.90;;;;;;5072571;28;20089;-80
2022/06/27 00:40:54;;;;;;;10.80;8.07;;;17.40;99.90;;;;;;5073284;28;20048;-80
2022/06/27 00:43:20;;;;;;;10.40;7.40;;;17.50;99.90;;;;;;5091452;28;20502;-80
2022/06/27 00:45:45;;;;;;;13.18;7.07;;;17.40;99.90;;;;;;5073229;28;20048;-80
2022/06/27 00:48:11;;;;;;;11.73;7.25;;;17.40;99.90;;;;;;5072881;28;20465;-80
2022/06/27 00:50:37;;;;;;;11.27;8.07;;;17.60;99.90;;;;;;5091270;28;20534;-80
2022/06/27 00:53:03;;;;;;;9.93;7.43;;;17.40;99.90;;;;;;5091201;28;20054;-81
2022/06/27 00:55:29;;;;;;;10.40;7.30;;;17.40;99.90;;;;;;5073109;28;20395;-80
2022/06/27 00:57:55;;;;;;;10.15;7.65;;;17.40;99.90;;;;;;5091175;28;20048;-80
2022/06/27 01:00:22;;;;;;;10.18;7.38;;;17.60;99.90;;;;;;5090980;28;20039;-78
2022/06/27 01:02:48;;;;;;;14.00;7.45;;;17.40;99.90;;;;;;5072795;28;20071;-79
2022/06/27 01:05:14;;;;;;;11.05;7.93;;;17.40;99.90;;;;;;5090945;28;20036;-80
2022/06/27 01:07:40;;;;;;;10.90;7.70;;;17.40;99.90;;;;;;5091082;28;20048;-79
2022/06/27 01:10:07;;;;;;;9.85;7.20;;;17.40;99.90;;;;;;5073239;28;20135;-80
2022/06/27 01:12:33;;;;;;;11.77;8.00;;;17.40;99.90;;;;;;5090831;28;20048;-80
2022/06/27 01:15:00;;;;;;;10.40;8.02;;;17.40;99.90;;;;;;5090600;28;20044;-81
2022/06/27 01:17:25;;;;;;;10.50;8.07;;;17.40;99.90;;;;;;5090872;28;20630;-81
2022/06/27 01:19:52;;;;;;;10.32;7.55;;;17.40;99.90;;;;;;5090792;28;20036;-81
2022/06/27 01:22:18;;;;;;;14.60;8.00;;;17.30;99.90;;;;;;5072905;28;20059;-81
2022/06/27 01:24:44;;;;;;;13.52;8.52;;;17.30;99.90;;;;;;5090645;28;20040;-81
2022/06/27 01:27:10;;;;;;;12.35;8.07;;;17.30;99.90;;;;;;5072337;28;20052;-81
2022/06/27 01:29:37;;;;;;;11.57;8.40;;;17.20;99.90;;;;;;5090634;28;20036;-81
2022/06/27 01:32:04;;;;;;;10.10;7.95;;;17.50;99.90;;;;;;5072054;28;20052;-81
2022/06/27 01:34:30;;;;;;;10.80;7.93;;;17.10;99.90;;;;;;5090639;28;20120;-80
2022/06/27 01:36:55;;;;;;;17.55;8.68;;;17.00;99.90;;;;;;5090539;28;20466;-80
2022/06/27 01:39:23;;;;;;;13.52;8.70;;;17.10;99.90;;;;;;5072407;28;20065;-80
2022/06/27 01:42:01;;;;;;;15.20;8.57;;;17.20;99.90;;;;;;5090415;28;20094;-80
2022/06/27 01:44:29;;;;;;;14.02;9.23;;;17.00;99.90;;;;;;5090561;28;20367;-80
2022/06/27 01:47:05;;;;;;;15.40;8.73;;;17.10;99.90;;;;;;5072147;28;20461;-81
2022/06/27 01:49:32;;;;;;;13.90;8.40;;;17.00;99.90;;;;;;5090512;28;20052;-81
2022/06/27 01:52:00;;;;;;;13.07;8.60;;;17.10;99.90;;;;;;5072210;28;20052;-81
2022/06/27 01:54:26;;;;;;;13.95;8.95;;;16.90;99.90;;;;;;5090212;28;20058;-82
2022/06/27 01:56:53;;;;;;;15.48;10.02;;;16.90;99.90;;;;;;5090375;28;20036;-81
2022/06/27 01:59:22;;;;;;;13.07;9.43;;;16.90;99.90;;;;;;5072120;28;20059;-80
2022/06/27 02:01:48;;;;;;;12.13;9.60;;;16.80;99.90;;;;;;5090271;28;20061;-80
2022/06/27 02:04:16;;;;;;;13.73;9.23;;;16.90;99.90;;;;;;5090302;28;20483;-81
2022/06/27 02:06:43;;;;;;;15.23;10.13;;;16.80;99.90;;;;;;5090336;28;20486;-81
2022/06/27 02:09:11;;;;;;;17.30;9.88;;;16.80;99.90;;;;;;5090109;28;20051;-79
2022/06/27 02:11:38;;;;;;;16.58;10.55;;;16.80;99.90;;;;;;5071942;28;20611;-79
2022/06/27 02:14:04;;;;;;;15.75;9.93;;;16.90;99.90;;;;;;5090322;28;20085;-79
2022/06/27 02:16:30;;;;;;;12.40;9.57;;;16.80;99.90;;;;;;5090272;28;20044;-80
2022/06/27 02:18:56;;;;;;;16.65;9.75;;;17.00;99.90;;;;;;5071899;28;20407;-80
2022/06/27 02:21:24;;;;;;;15.88;9.25;;;16.80;99.90;;;;;;5090169;28;20048;-82
2022/06/27 02:23:51;;;;;;;14.20;8.75;;;16.80;99.90;;;;;;5090066;28;20050;-80
2022/06/27 02:26:18;;;;;;;14.95;9.07;;;16.90;99.90;;;;;;5071867;28;20123;-80
2022/06/27 02:28:44;;;;;;;12.45;9.32;;;16.80;99.90;;;;;;5090249;28;20048;-81
2022/06/27 02:31:11;;;;;;;14.50;9.18;;;16.80;99.90;;;;;;5092592;28;20080;-80
2022/06/27 02:33:39;;;;;;;14.07;9.10;;;16.70;99.90;;;;;;5093589;28;20075;-81
2022/06/27 02:36:07;;;;;;;20.05;10.10;;;16.70;99.90;;;;;;5093614;28;20475;-82
2022/06/27 02:38:34;;;;;;;11.90;9.30;;;16.70;99.90;;;;;;5093629;28;20090;-81
2022/06/27 02:41:03;;;;;;;14.43;9.73;;;16.80;99.90;;;;;;5093825;28;20033;-81
2022/06/27 02:43:29;;;;;;;12.32;9.75;;;16.80;99.90;;;;;;5093789;28;20090;-81
2022/06/27 02:45:56;;;;;;;14.43;8.88;;;16.80;99.90;;;;;;5093720;28;20478;-80
2022/06/27 02:48:26;;;;;;;11.93;9.38;;;16.70;99.90;;;;;;5093128;28;20064;-79
2022/06/27 02:50:58;;;;;;;13.85;10.38;;;16.70;99.90;;;;;;5075339;28;20084;-79
2022/06/27 02:53:29;;;;;;;13.38;9.77;;;16.70;99.90;;;;;;5093127;28;20105;-80
2022/06/27 02:55:57;;;;;;;15.45;10.13;;;16.80;99.90;;;;;;5093419;28;20055;-80
2022/06/27 02:58:33;;;;;;;12.45;9.52;;;16.80;99.90;;;;;;5093299;28;20094;-80
2022/06/27 03:01:02;;;;;;;14.60;10.25;;;16.70;99.90;;;;;;5093283;28;20101;-80
2022/06/27 03:03:31;;;;;;;13.15;9.70;;;16.70;99.90;;;;;;5092858;28;20069;-80
2022/06/27 03:06:02;;;;;;;12.35;9.38;;;16.70;99.90;;;;;;5091644;28;20064;-80
2022/06/27 03:08:41;;;;;;;17.48;9.90;;;16.70;99.90;;;;;;5092975;28;20079;-80
2022/06/27 03:11:09;;;;;;;15.52;10.15;;;16.70;99.90;;;;;;5091596;28;20048;-79
2022/06/27 03:13:35;;;;;;;14.57;9.98;;;16.70;99.90;;;;;;5092993;28;20102;-80
2022/06/27 03:16:01;;;;;;;13.88;10.27;;;16.70;99.90;;;;;;5074733;28;20433;-79
2022/06/27 03:18:28;;;;;;;12.30;10.38;;;16.80;99.90;;;;;;5092742;28;20048;-80
2022/06/27 03:20:54;;;;;;;14.73;11.63;;;16.80;99.90;;;;;;5074680;28;20059;-80
2022/06/27 03:23:20;;;;;;;12.95;10.52;;;16.80;99.90;;;;;;5092962;28;20054;-80
2022/06/27 03:25:46;;;;;;;15.13;11.13;;;16.70;99.90;;;;;;5075127;28;20074;-79
2022/06/27 03:28:12;;;;;;;13.38;10.38;;;16.90;99.90;;;;;;5092723;28;20100;-81
2022/06/27 03:30:38;;;;;;;11.80;10.50;;;16.80;99.90;;;;;;5091324;28;20051;-80
2022/06/27 03:33:03;;;;;;;15.10;10.18;;;16.80;99.90;;;;;;5092616;28;20681;-80
2022/06/27 03:35:29;;;;;;;16.75;11.68;;;16.80;99.90;;;;;;5092061;28;20048;-81
2022/06/27 03:37:55;;;;;;;14.43;10.45;;;16.80;99.90;;;;;;5074215;28;20039;-80
2022/06/27 03:40:21;;;;;;;16.48;10.50;;;16.80;99.90;;;;;;5092508;28;20040;-80
2022/06/27 03:42:47;;;;;;;13.27;10.30;;;16.70;99.90;;;;;;5091471;28;20070;-80
2022/06/27 03:45:13;;;;;;;13.43;10.48;;;16.80;99.90;;;;;;5092391;28;20547;-81
2022/06/27 03:47:54;;;;;;;12.20;10.23;;;16.80;99.90;;;;;;5092154;28;20443;-80
2022/06/27 03:50:21;;;;;;;15.45;10.70;;;16.80;99.90;;;;;;5092193;28;20048;-80
2022/06/27 03:52:47;;;;;;;14.48;11.30;;;16.80;99.90;;;;;;5092329;28;20449;-80
2022/06/27 03:55:14;;;;;;;13.77;11.32;;;16.80;99.90;;;;;;5092295;28;20052;-80
2022/06/27 03:57:47;;;;;;;16.63;11.57;;;16.90;99.90;;;;;;5092374;28;20047;-79
2022/06/27 04:00:13;;;;;;;14.02;11.52;;;16.90;99.90;;;;;;5092230;28;20040;-80
2022/06/27 04:02:39;;;;;;;14.40;11.80;;;16.90;99.90;;;;;;5091967;28;20075;-79
2022/06/27 04:05:06;;;;;;;14.60;11.73;;;16.90;99.90;;;;;;5090511;28;20080;-80
2022/06/27 04:07:31;;;;;;;21.23;13.40;;;16.90;99.90;;;;;;5091972;28;20040;-80
2022/06/27 04:09:57;;;;;;;17.70;12.73;;;17.00;99.90;;;;;;5092082;28;20089;-78
2022/06/27 04:12:24;;;;;;;17.50;12.95;;;16.90;99.90;;;;;;5091942;28;20043;-79
2022/06/27 04:14:50;;;;;;;15.18;12.02;;;16.90;99.90;;;;;;5091832;28;20444;-79
2022/06/27 04:17:16;;;;;;;18.08;13.43;;;16.90;99.90;;;;;;5091531;28;20052;-80
2022/06/27 04:19:41;;;;;;;15.50;12.68;;;17.20;99.90;;;;;;5091615;28;20051;-80
2022/06/27 04:22:10;;;;;;;18.48;14.27;;;17.00;99.90;;;;;;5073343;28;20052;-79
2022/06/27 04:24:36;;;;;;;18.73;12.55;;;17.10;99.90;;;;;;5091659;28;20062;-79
2022/06/27 04:27:03;;;;;;;20.08;13.48;;;17.00;99.90;;;;;;5091603;28;20044;-79
2022/06/27 04:29:29;;;;;;;16.50;12.68;;;17.00;99.90;;;;;;5091478;28;20044;-81
2022/06/27 04:31:55;;;;;;;16.10;13.43;;;17.10;99.90;;;;;;5091266;28;20066;-79
2022/06/27 04:34:21;;;;;;;20.58;13.60;;;17.10;99.90;;;;;;5091553;28;20101;-79
2022/06/27 04:36:47;;;;;;;17.52;14.43;;;17.10;99.90;;;;;;5091297;28;20443;-80
2022/06/27 04:39:17;;;;;;;21.10;15.90;;;17.20;99.90;;;;;;5090262;28;20043;-79
2022/06/27 04:41:45;;;;;;;20.00;14.68;;;17.10;99.90;;;;;;5089847;28;20056;-81
2022/06/27 04:44:11;;;;;;;17.00;14.50;;;17.10;99.90;;;;;;5091192;28;20083;-79
2022/06/27 04:46:38;;;;;;;17.63;14.73;;;17.10;99.90;;;;;;5090923;28;20050;-80
2022/06/27 04:49:04;;;;;;;20.38;15.35;;;17.10;99.90;;;;;;5091017;28;20063;-78
2022/06/27 04:51:30;;;;;;;20.17;16.45;;;17.10;99.90;;;;;;5091189;28;20044;-79
2022/06/27 04:53:56;;;;;;;17.85;15.95;;;17.10;99.90;;;;;;5090782;28;20044;-79
2022/06/27 04:56:22;;;;;;;19.75;16.77;;;17.30;99.90;;;;;;5091125;28;20052;-80
2022/06/27 04:58:48;;;;;;;23.17;15.60;;;17.10;99.90;;;;;;5091036;28;20399;-80
2022/06/27 05:01:14;;;;;;;19.52;16.25;;;17.10;99.90;;;;;;5090860;28;20055;-80
2022/06/27 05:03:39;;;;;;;22.42;17.05;;;17.10;99.90;;;;;;5072668;28;20040;-82
2022/06/27 05:06:05;;;;;;;18.83;14.90;;;17.20;99.90;;;;;;5090893;28;20052;-78
2022/06/27 05:08:31;;;;;;;18.13;15.77;;;17.20;99.90;;;;;;5090497;28;20085;-79
2022/06/27 05:10:58;;;;;;;20.45;15.00;;;17.20;99.90;;;;;;5072724;28;20054;-80
2022/06/27 05:13:24;;;;;;;19.83;13.27;;;17.30;99.90;;;;;;5090727;28;20044;-81
2022/06/27 05:15:50;;;;;;;14.57;11.73;;;17.20;99.90;;;;;;5089500;28;20055;-80
2022/06/27 05:18:15;;;;;;;11.32;9.85;;;17.30;99.90;;;;;;5090610;28;20153;-81
2022/06/27 05:20:42;;;;;;;10.20;9.07;;;17.30;99.90;;;;;;5072616;28;20055;-81
2022/06/27 05:23:09;;;;;;;10.80;8.77;;;17.20;99.90;;;;;;5090472;28;20060;-79
2022/06/27 05:25:34;;;;;;;9.88;8.43;;;17.20;99.90;;;;;;5072660;28;20139;-80
2022/06/27 05:28:02;;;;;;;9.25;7.65;;;17.20;99.90;;;;;;5072500;28;20131;-79
2022/06/27 05:30:28;;;;;;;11.68;7.13;;;17.20;99.90;;;;;;5072464;28;20060;-80
2022/06/27 05:32:54;;;;;;;8.13;7.13;;;17.20;99.90;;;;;;5090453;28;20048;-80
2022/06/27 05:35:23;;;;;;;9.65;7.70;;;17.30;99.90;;;;;;5090748;28;20076;-79
2022/06/27 05:37:50;;;;;;;9.68;6.57;;;17.20;99.90;;;;;;5090774;28;20398;-79
2022/06/27 05:40:17;;;;;;;8.90;6.65;;;17.30;99.90;;;;;;5072385;28;20089;-80
2022/06/27 05:42:43;;;;;;;10.38;6.50;;;17.30;99.90;;;;;;5090796;28;20398;-81
2022/06/27 05:45:10;;;;;;;8.80;5.65;;;17.60;99.90;;;;;;5090716;28;20044;-80
2022/06/27 05:47:36;;;;;;;9.73;5.80;;;17.40;99.90;;;;;;5072374;28;20083;-79
2022/06/27 05:50:05;;;;;;;8.35;5.43;;;17.40;99.90;;;;;;5090663;28;20052;-79
2022/06/27 05:52:31;;;;;;;9.10;5.95;;;17.40;99.90;;;;;;5090683;28;20040;-80
2022/06/27 05:54:59;;;;;;;8.43;5.45;;;17.40;99.90;;;;;;5071922;28;20314;-79
2022/06/27 05:57:25;;;;;;;9.10;5.25;;;17.50;99.90;;;;;;5090098;28;20048;-80
2022/06/27 05:59:53;;;;;;;8.00;5.55;;;17.50;99.90;;;;;;5090416;28;20115;-81
2022/06/27 06:02:20;;;;;;;5.97;4.70;;;17.50;99.90;;;;;;5090248;28;20052;-79
2022/06/27 06:04:47;;;;;;;7.07;4.30;;;17.60;99.90;;;;;;5090718;28;20044;-79
2022/06/27 06:07:14;;;;;;;5.47;3.63;;;17.60;99.90;;;;;;5076045;28;20051;-79
2022/06/27 06:09:41;;;;;;;7.97;3.40;;;17.60;99.90;;;;;;5094002;28;20047;-81
2022/06/27 06:12:09;;;;;;;5.18;3.40;;;17.60;99.90;;;;;;5094030;28;20495;-81
2022/06/27 06:14:36;;;;;;;5.30;3.28;;;17.60;99.90;;;;;;5094118;28;20040;-80
2022/06/27 06:17:03;;;;;;;5.28;2.88;;;17.70;99.90;;;;;;5093963;28;20048;-79
2022/06/27 06:19:29;;;;;;;5.13;3.42;;;17.60;99.90;;;;;;5094226;28;20052;-79
2022/06/27 06:21:55;;;;;;;5.78;3.10;;;17.60;99.90;;;;;;5094055;28;20047;-80
2022/06/27 06:24:21;;;;;;;3.97;2.85;;;17.70;99.90;;;;;;5093918;28;20040;-79
2022/06/27 06:26:47;;;;;;;4.22;2.60;;;17.60;99.90;;;;;;5093672;28;20123;-80
2022/06/27 06:29:15;;;;;;;6.22;3.28;;;17.60;99.90;;;;;;5093873;28;20036;-80
2022/06/27 06:31:43;;;;;;;5.72;3.10;;;17.80;99.90;;;;;;5093708;28;20053;-81
2022/06/27 06:34:11;;;;;;;3.53;2.38;;;17.70;99.90;;;;;;5093884;28;20048;-80
2022/06/27 06:36:38;;;;;;;3.92;2.58;;;17.70;99.90;;;;;;5093724;28;20395;-80
2022/06/27 06:39:06;;;;;;;4.75;2.42;;;17.70;99.90;;;;;;5093808;28;20101;-80
2022/06/27 06:41:32;;;;;;;5.50;2.50;;;17.70;99.90;;;;;;5093507;28;20146;-80
2022/06/27 06:44:02;;;;;;;4.05;2.50;;;17.70;99.90;;;;;;5093888;28;20051;-80
2022/06/27 06:46:28;;;;;;;4.18;2.60;;;17.70;99.90;;;;;;5093574;28;20035;-81
2022/06/27 06:48:57;;;;;;;3.67;2.50;;;17.90;99.90;;;;;;5093448;28;20048;-81
2022/06/27 06:51:24;;;;;;;4.22;2.95;;;17.70;99.90;;;;;;5093498;28;20047;-80
2022/06/27 06:53:50;;;;;;;4.30;2.65;;;17.90;99.90;;;;;;5093179;28;20498;-81
2022/06/27 06:56:16;;;;;;;5.53;2.60;;;17.70;99.90;;;;;;5093114;28;20048;-80
2022/06/27 06:58:42;;;;;;;4.90;2.60;;;17.70;99.90;;;;;;5093337;28;20067;-80
2022/06/27 07:01:08;;;;;;;4.75;2.78;;;17.60;99.90;;;;;;5074936;28;20453;-81
2022/06/27 07:03:34;;;;;;;3.90;2.60;;;17.70;99.90;;;;;;5074942;28;20117;-78
2022/06/27 07:06:01;;;;;;;4.60;2.90;;;17.70;99.90;;;;;;5093099;28;20051;-79
2022/06/27 07:08:30;;;;;;;4.50;2.50;;;17.80;99.90;;;;;;5093008;28;20052;-78
2022/06/27 07:10:57;;;;;;;3.72;2.22;;;17.70;99.90;;;;;;5074813;28;20044;-80
2022/06/27 07:13:24;;;;;;;4.65;2.25;;;17.70;99.90;;;;;;5093021;28;20466;-81
2022/06/27 07:15:50;;;;;;;4.40;2.50;;;17.70;99.90;;;;;;5092720;28;20411;-80
2022/06/27 07:18:17;;;;;;;2.63;1.90;;;17.70;99.90;;;;;;5074492;28;20101;-81
2022/06/27 07:20:43;;;;;;;3.28;2.03;;;17.80;99.90;;;;;;5092638;28;20561;-81
2022/06/27 07:23:11;;;;;;;3.95;2.45;;;17.80;99.90;;;;;;5092699;28;20510;-80
2022/06/27 07:25:37;;;;;;;5.13;2.40;;;17.80;99.90;;;;;;5092702;28;20051;-81
2022/06/27 07:28:04;;;;;;;4.45;2.08;;;17.90;99.90;;;;;;5092466;28;20526;-81
2022/06/27 07:30:30;;;;;;;3.15;2.00;;;17.90;99.90;;;;;;5092539;28;20513;-82
2022/06/27 07:32:56;;;;;;;6.18;2.40;;;18.00;99.90;;;;;;5074805;28;20048;-79
2022/06/27 07:35:22;;;;;;;4.55;2.30;;;18.00;99.90;;;;;;5092820;28;20040;-81
2022/06/27 07:37:49;;;;;;;6.05;1.92;;;18.00;99.90;;;;;;5092621;28;20071;-79
2022/06/27 07:40:20;;;;;;;3.72;2.10;;;18.00;99.90;;;;;;5092647;28;20047;-79
2022/06/27 07:42:47;;;;;;;4.15;2.42;;;18.00;99.90;;;;;;5072373;28;20314;-81
2022/06/27 07:45:15;;;;;;;3.92;2.40;;;18.00;99.90;;;;;;5064322;28;20051;-80
2022/06/27 07:47:42;;;;;;;6.45;2.33;;;17.90;99.90;;;;;;5089592;28;20411;-80
2022/06/27 07:50:09;;;;;;;4.43;2.20;;;17.90;99.90;;;;;;5092212;28;20379;-80
2022/06/27 07:53:11;;;;;;;2.85;2.03;;;17.90;99.90;;;;;;5074019;28;20191;-80
2022/06/27 07:55:24;;;;;;;3.45;1.92;;;17.80;99.90;;;;;;5091837;28;20490;-81
2022/06/27 07:57:52;;;;;;;3.08;2.03;;;17.90;99.90;;;;;;5091636;28;20521;-81
2022/06/27 08:00:18;;;;;;;4.57;1.88;;;17.90;99.90;;;;;;5092339;28;20040;-80
2022/06/27 08:02:44;;;;;;;4.32;2.42;;;18.00;99.90;;;;;;5073645;28;20092;-80
2022/06/27 08:05:10;;;;;;;4.50;2.00;;;18.00;99.90;;;;;;5073712;28;20131;-82
2022/06/27 08:07:37;;;;;;;5.65;2.40;;;18.00;99.90;;;;;;5091986;28;20056;-82
2022/06/27 08:10:04;;;;;;;4.22;2.60;;;18.10;99.90;;;;;;5091852;28;20533;-81
2022/06/27 08:12:31;;;;;;;3.90;2.20;;;18.10;99.90;;;;;;5091722;28;20048;-81
2022/06/27 08:14:56;;;;;;;4.45;2.58;;;18.20;99.90;;;;;;5091541;28;20044;-81
2022/06/27 08:17:24;;;;;;;4.25;2.83;;;18.30;99.90;;;;;;5073403;28;20491;-81
2022/06/27 08:19:50;;;;;;;5.20;3.10;;;18.30;99.90;;;;;;5091893;28;20040;-81
2022/06/27 08:22:16;;;;;;;3.30;2.22;;;18.40;99.90;;;;;;5091698;28;20040;-80
2022/06/27 08:24:42;;;;;;;4.60;2.00;;;18.40;99.90;;;;;;5091261;28;20514;-80
2022/06/27 08:27:08;;;;;;;4.15;1.90;;;18.50;99.90;;;;;;5091399;28;20067;-80
2022/06/27 08:29:34;;;;;;;3.58;1.30;;;18.60;99.90;;;;;;5090687;28;20055;-80
2022/06/27 08:32:00;;;;;;;3.25;1.17;;;18.60;99.90;;;;;;5091497;28;20040;-80
2022/06/27 08:34:26;;;;;;;3.30;1.52;;;18.70;99.90;;;;;;5091740;28;20394;-81
2022/06/27 08:36:52;;;;;;;4.88;1.98;;;18.80;99.90;;;;;;5073083;28;20479;-80
2022/06/27 08:39:18;;;;;;;3.50;1.95;;;18.80;99.90;;;;;;5091496;28;20055;-80
2022/06/27 08:41:48;;;;;;;5.10;1.63;;;18.80;99.90;;;;;;5091473;28;20441;-80
2022/06/27 08:44:15;;;;;;;3.10;1.80;;;18.80;99.90;;;;;;5089914;28;20047;-80
2022/06/27 08:46:45;;;;;;;3.08;1.40;;;18.90;99.90;;;;;;5091492;28;20036;-80
2022/06/27 08:49:14;;;;;;;2.65;1.40;;;18.90;99.90;;;;;;5091033;28;20063;-80
2022/06/27 08:51:42;;;;;;;2.97;1.77;;;18.90;99.90;;;;;;5073008;28;20055;-81
2022/06/27 08:54:07;;;;;;;3.00;1.80;;;19.00;99.90;;;;;;5091129;28;20072;-80
2022/06/27 08:56:33;;;;;;;3.38;2.03;;;18.90;99.90;;;;;;5073022;28;20474;-81
2022/06/27 08:58:59;;;;;;;5.05;1.73;;;19.00;99.90;;;;;;5072570;28;20052;-81
2022/06/27 09:01:27;;;;;;;4.68;2.00;;;19.00;99.90;;;;;;5091013;28;20044;-81
2022/06/27 09:04:02;;;;;;;3.78;2.22;;;19.10;99.90;;;;;;5091204;28;20490;-81
2022/06/27 09:06:33;;;;;;;3.45;1.80;;;19.20;99.90;;;;;;5090924;28;20054;-80
2022/06/27 09:09:07;;;;;;;3.28;1.50;;;19.40;99.90;;;;;;5072696;28;20055;-81
2022/06/27 09:11:37;;;;;;;5.10;1.50;;;19.50;99.90;;;;;;5090745;28;20410;-82
2022/06/27 09:14:05;;;;;;;5.95;1.88;;;19.70;99.90;;;;;;5090798;28;20422;-80
2022/06/27 09:16:31;;;;;;;3.05;1.75;;;19.80;99.90;;;;;;5072516;28;20055;-80
2022/06/27 09:18:57;;;;;;;3.25;1.80;;;20.00;99.90;;;;;;5090938;28;20036;-80
2022/06/27 09:21:25;;;;;;;3.60;1.63;;;20.00;99.90;;;;;;5090868;28;20040;-81
2022/06/27 09:24:00;;;;;;;2.83;1.58;;;19.90;99.90;;;;;;5072716;28;20059;-81
2022/06/27 09:26:35;;;;;;;3.30;2.08;;;20.10;99.90;;;;;;5091101;28;20102;-82
2022/06/27 09:29:04;;;;;;;5.25;2.00;;;20.20;99.90;;;;;;5091016;28;20131;-80
2022/06/27 09:31:42;;;;;;;3.55;1.70;;;20.10;99.90;;;;;;5090284;28;20387;-80
2022/06/27 09:34:14;;;;;;;4.20;1.30;;;20.20;99.90;;;;;;5090610;28;20044;-82
2022/06/27 09:37:01;;;;;;;3.42;1.42;;;20.20;99.90;;;;;;5072145;28;20052;-80
2022/06/27 09:39:35;;;;;;;4.47;1.60;;;20.20;99.90;;;;;;5090798;28;20055;-82
2022/06/27 09:42:06;;;;;;;2.15;1.02;;;20.20;99.90;;;;;;5094647;28;20058;-83
2022/06/27 09:44:34;;;;;;;3.40;1.40;;;20.20;99.90;;;;;;5076695;28;20089;-82
2022/06/27 09:47:04;;;;;;;2.10;1.20;;;20.20;99.90;;;;;;5094177;28;20052;-82
2022/06/27 09:49:33;;;;;;;5.65;1.63;;;20.20;99.90;;;;;;5076694;28;20132;-81
2022/06/27 09:52:04;;;;;;;3.25;1.42;;;20.10;99.90;;;;;;5095071;28;20394;-80
2022/06/27 09:54:30;;;;;;;2.65;1.55;;;20.10;99.90;;;;;;5094438;28;20070;-82
2022/06/27 09:56:58;;;;;;;2.83;2.03;;;20.10;99.90;;;;;;5076484;28;20399;-81
2022/06/27 09:59:24;;;;;;;6.22;2.50;;;20.10;99.90;;;;;;5094616;28;20074;-81
2022/06/27 10:01:50;;;;;;;4.55;1.90;;;20.10;99.90;;;;;;5093832;28;20139;-81
2022/06/27 10:04:17;;;;;;;3.58;2.38;;;20.10;99.90;;;;;;5094533;28;20131;-81
2022/06/27 10:06:43;;;;;;;5.05;2.35;;;20.10;99.90;;;;;;5094623;28;20039;-79
2022/06/27 10:09:11;;;;;;;4.15;2.65;;;20.10;99.90;;;;;;5058996;28;20490;-78
2022/06/27 10:11:37;;;;;;;4.63;2.55;;;20.10;99.90;;;;;;5094288;28;20040;-82
2022/06/27 10:14:26;;;;;;;6.68;3.20;;;20.10;99.90;;;;;;5094066;28;20044;-81
2022/06/27 10:16:59;;;;;;;5.15;3.63;;;20.10;99.90;;;;;;5094010;28;20081;-82
2022/06/27 10:19:29;;;;;;;6.72;2.90;;;20.10;99.90;;;;;;5094230;28;20051;-81
2022/06/27 10:21:56;;;;;;;7.72;3.53;;;20.10;99.90;;;;;;5075936;28;20484;-81
2022/06/27 10:24:22;;;;;;;5.10;3.25;;;20.20;99.90;;;;;;5093820;28;20048;-82
2022/06/27 10:26:52;;;;;;;5.28;3.20;;;20.30;99.90;;;;;;5093826;28;20053;-81
2022/06/27 10:29:28;;;;;;;5.05;2.80;;;20.20;99.90;;;;;;5093769;28;20088;-81
2022/06/27 10:31:54;;;;;;;6.82;3.22;;;20.30;99.90;;;;;;5093979;28;20115;-82
2022/06/27 10:34:38;;;;;;;5.00;3.25;;;20.20;99.90;;;;;;5093586;28;20574;-81
2022/06/27 10:37:24;;;;;;;4.95;3.90;;;20.30;99.90;;;;;;5075457;28;20040;-81
2022/06/27 10:39:54;;;;;;;5.07;4.13;;;20.30;99.90;;;;;;5093796;28;20051;-81
2022/06/27 10:42:48;;;;;;;7.97;4.28;;;20.30;99.90;;;;;;5075558;28;20126;-81
2022/06/27 10:45:19;;;;;;;4.70;3.53;;;20.20;99.90;;;;;;5093572;28;20054;-82
2022/06/27 10:47:53;;;;;;;6.80;3.65;;;20.30;99.90;;;;;;5093049;28;20725;-82
2022/06/27 10:50:22;;;;;;;4.68;3.92;;;20.30;99.90;;;;;;5075178;28;20156;-81
2022/06/27 10:52:48;;;;;;;7.65;4.20;;;20.20;99.90;;;;;;5093160;28;20376;-79
2022/06/27 10:55:25;;;;;;;4.82;3.50;;;20.20;99.90;;;;;;5093362;28;20048;-81
2022/06/27 10:57:53;;;;;;;5.40;3.78;;;20.20;99.90;;;;;;5093268;28;20066;-82
2022/06/27 11:00:37;;;;;;;7.57;4.47;;;20.30;99.90;;;;;;5093325;28;20048;-80
2022/06/27 11:03:04;;;;;;;6.15;4.07;;;20.30;99.90;;;;;;5093036;28;20072;-79
2022/06/27 11:05:49;;;;;;;7.80;3.80;;;20.30;99.90;;;;;;5092961;28;20097;-80
2022/06/27 11:08:15;;;;;;;6.63;4.15;;;20.30;99.90;;;;;;5093100;28;20391;-80
2022/06/27 11:10:43;;;;;;;8.63;4.65;;;20.40;99.90;;;;;;5093209;28;20048;-80
2022/06/27 11:13:08;;;;;;;9.65;5.15;;;20.40;99.90;;;;;;5092964;28;20164;-80
2022/06/27 11:15:34;;;;;;;7.07;4.68;;;20.40;99.90;;;;;;5074447;28;20080;-80
2022/06/27 11:18:07;;;;;;;7.78;5.65;;;20.40;99.90;;;;;;5092806;28;20055;-80
2022/06/27 11:20:33;;;;;;;6.50;4.95;;;20.40;99.90;;;;;;5091062;28;20052;-80
2022/06/27 11:23:00;;;;;;;7.38;4.70;;;20.50;99.90;;;;;;5093067;28;20058;-80
2022/06/27 11:25:30;;;;;;;6.28;4.82;;;20.50;99.90;;;;;;5095398;28;20040;-80
2022/06/27 11:33:40;;;;;;;7.32;4.38;;;20.60;99.90;;;;;;5072480;28;20044;-80
2022/06/27 11:36:06;;;;;;;6.35;3.97;;;20.70;99.90;;;;;;5071995;28;20044;-79
2022/06/27 11:38:43;;;;;;;7.28;4.22;;;20.70;99.90;;;;;;5054148;28;20106;-80
2022/06/27 11:41:16;;;;;;;6.40;4.07;;;20.70;99.90;;;;;;5072500;28;20075;-80
2022/06/27 11:43:56;;;;;;;8.05;4.53;;;20.80;99.90;;;;;;5072312;28;20044;-80
2022/06/27 11:46:45;;;;;;;6.28;4.32;;;20.80;99.90;;;;;;5072159;28;20063;-80
2022/06/27 11:49:11;;;;;;;5.68;3.40;;;20.80;99.90;;;;;;5056618;23;20434;-80
2022/06/27 11:54:35;;;;;;;4.97;3.60;;;20.90;99.90;;;;;;5099027;22;20048;-79
2022/06/27 11:57:36;;;;;;;5.63;4.35;;;20.80;99.90;;;;;;5092017;28;20044;-79
2022/06/27 12:00:06;;;;;;;7.93;3.75;;;20.90;99.90;;;;;;5091107;28;20089;-79
2022/06/27 12:02:40;;;;;;;5.57;3.78;;;20.90;99.90;;;;;;5091540;28;20054;-80
2022/06/27 12:05:07;;;;;;;9.65;4.18;;;20.90;99.90;;;;;;5091980;28;20052;-79
2022/06/27 12:07:53;;;;;;;5.22;3.55;;;20.90;99.90;;;;;;5091870;28;20063;-79
2022/06/27 12:13:41;;;;;;;5.18;3.58;;;20.90;99.90;;;;;;5091811;28;20134;-79
2022/06/27 12:16:11;;;;;;;5.55;3.70;;;20.90;99.90;;;;;;5090151;28;20036;-79
2022/06/27 12:18:42;;;;;;;7.00;3.40;;;21.00;99.90;;;;;;5090291;28;20051;-80
2022/06/27 12:21:08;;;;;;;4.57;3.45;;;21.00;99.90;;;;;;5091598;28;20067;-80
2022/06/27 12:23:37;;;;;;;4.35;2.78;;;21.00;99.90;;;;;;5090812;28;20705;-80
2022/06/27 12:26:08;;;;;;;5.65;3.35;;;21.10;99.90;;;;;;5091765;28;20055;-79
2022/06/27 12:28:37;;;;;;;5.22;2.83;;;21.10;99.90;;;;;;5091617;28;20040;-80
2022/06/27 12:33:33;;;;;;;6.10;2.80;;;21.20;99.90;;;;;;5049859;28;20450;-79
2022/06/27 12:35:59;;;;;;;4.75;3.20;;;21.20;99.90;;;;;;5033527;28;20052;-80
2022/06/27 12:38:25;;;;;;;5.75;3.40;;;21.20;99.90;;;;;;5050981;28;20415;-80
2022/06/27 12:41:11;;;;;;;5.80;3.40;;;21.30;99.90;;;;;;5033380;28;20041;-79
2022/06/27 12:43:43;;;;;;;12.25;3.30;;;21.30;99.90;;;;;;5050830;28;20055;-80
2022/06/27 12:46:10;;;;;;;4.30;2.90;;;21.40;99.90;;;;;;5060321;22;20048;-80
2022/06/27 12:48:39;;;;;;;7.20;3.08;;;21.30;99.90;;;;;;5097664;22;20075;-77
2022/06/27 12:51:07;;;;;;;3.53;2.33;;;21.30;99.90;;;;;;5091295;28;20048;-79
2022/06/27 12:53:33;;;;;;;4.82;2.80;;;21.20;99.90;;;;;;5098494;22;20492;-80
2022/06/27 12:56:01;;;;;;;7.28;4.07;;;21.20;99.90;;;;;;5073360;28;20380;-79
2022/06/27 12:58:31;;;;;;;6.68;3.30;;;21.20;99.90;;;;;;5090904;28;20061;-80
2022/06/27 13:00:57;;;;;;;6.65;3.70;;;21.20;99.90;;;;;;5091123;28;20044;-80